Time;durP1;ratioP1;P1;durP2;ratioP2;P2;SDS_P1;SDS_P2;PMS_P1;PMS_P2;Temp;Humidity;BMP_temperature;BMP_pressure;BME280_temperature;BME280_humidity;BME280_pressure;Samples;Min_cycle;Max_cycle;Signal;HPM_P1;HPM_P2
2022/05/03 00:00:12;;;;;;;9.23;4.10;;;;;;;11.03;53.10;98689.16;5008870;28;20046;-69
2022/05/03 00:02:45;;;;;;;9.52;3.97;;;;;;;11.06;53.32;98697.56;4991411;28;20053;-70
2022/05/03 00:05:16;;;;;;;12.68;3.70;;;;;;;11.01;53.33;98702.34;4994060;28;20054;-69
2022/05/03 00:07:47;;;;;;;8.43;3.75;;;;;;;10.82;54.16;98689.56;4989643;28;20449;-70
2022/05/03 00:10:15;;;;;;;9.75;3.83;;;;;;;10.68;54.84;98692.28;5006238;28;20054;-69
2022/05/03 00:12:47;;;;;;;10.27;4.10;;;;;;;10.61;55.19;98689.97;5005235;28;20092;-70
2022/05/03 00:15:18;;;;;;;21.08;3.72;;;;;;;10.77;54.79;98686.91;4992348;28;20079;-69
2022/05/03 00:17:46;;;;;;;10.98;3.88;;;;;;;10.80;54.52;98683.59;5001095;28;20490;-70
2022/05/03 00:20:11;;;;;;;;;;;;;;;10.75;54.61;98673.56;5006792;28;20065;-71
2022/05/03 00:22:38;;;;;;;11.10;3.95;;;;;;;10.80;54.44;98666.38;5011440;28;19926;-70
2022/05/03 00:25:06;;;;;;;9.65;3.67;;;;;;;10.88;54.01;98669.22;5010908;28;20066;-68
2022/05/03 00:27:34;;;;;;;9.93;3.80;;;;;;;10.94;53.80;98669.13;5006962;28;20054;-70
2022/05/03 00:30:01;;;;;;;9.85;3.75;;;;;;;10.95;53.88;98670.75;4974138;28;20222;-68
2022/05/03 00:32:31;;;;;;;10.48;4.05;;;;;;;10.90;54.28;98664.25;4992500;28;20364;-67
2022/05/03 00:35:00;;;;;;;;;;;;;;;10.71;54.92;98677.22;5005680;28;20058;-68
2022/05/03 00:37:27;;;;;;;8.95;3.72;;;;;;;10.29;56.39;98649.81;4991185;28;19926;-68
2022/05/03 00:39:53;;;;;;;9.43;3.90;;;;;;;10.17;56.90;98661.22;5009968;28;20466;-70
2022/05/03 00:42:22;;;;;;;9.60;4.10;;;;;;;10.33;56.45;98669.94;4993663;28;20057;-69
2022/05/03 00:45:02;;;;;;;10.98;4.40;;;;;;;10.35;56.40;98663.09;4991882;28;20065;-69
2022/05/03 00:47:48;;;;;;;12.48;4.40;;;;;;;10.28;56.88;98656.38;5005867;28;20508;-69
2022/05/03 00:50:31;;;;;;;10.23;4.03;;;;;;;10.25;56.70;98648.81;5010385;28;20054;-69
2022/05/03 00:53:02;;;;;;;8.07;3.75;;;;;;;10.14;57.08;98648.97;5011200;28;20049;-67
2022/05/03 00:55:47;;;;;;;9.45;3.92;;;;;;;9.94;58.01;98647.41;4967009;28;20050;-68
2022/05/03 00:58:33;;;;;;;13.40;4.15;;;;;;;9.81;58.87;98651.72;5003129;28;20112;-67
2022/05/03 01:01:04;;;;;;;10.77;4.18;;;;;;;9.80;58.99;98639.16;4992188;28;20057;-68
2022/05/03 01:03:41;;;;;;;8.68;4.07;;;;;;;9.79;59.26;98654.72;5006337;28;20049;-68
2022/05/03 01:06:22;;;;;;;10.27;4.38;;;;;;;9.78;59.35;98658.56;5000696;28;20148;-68
2022/05/03 01:09:03;;;;;;;10.63;4.20;;;;;;;9.69;59.77;98645.88;4996685;28;20050;-67
2022/05/03 01:11:35;;;;;;;9.93;4.70;;;;;;;9.63;60.15;98650.63;4994006;28;20136;-67
2022/05/03 01:14:10;;;;;;;11.10;4.32;;;;;;;9.71;59.70;98649.97;5008990;28;20103;-67
2022/05/03 01:16:46;;;;;;;11.00;4.40;;;;;;;9.65;60.12;98642.94;5003287;28;20077;-68
2022/05/03 01:19:32;;;;;;;9.07;3.95;;;;;;;9.65;60.13;98638.31;5011454;28;20103;-67
2022/05/03 01:22:07;;;;;;;10.10;4.63;;;;;;;9.62;59.47;98621.69;5010269;28;20046;-68
2022/05/03 01:24:54;;;;;;;11.27;4.70;;;;;;;9.58;60.17;98629.66;5005611;28;20514;-67
2022/05/03 01:27:49;;;;;;;12.00;5.10;;;;;;;9.53;60.33;98632.47;4991345;28;20120;-68
2022/05/03 01:30:17;;;;;;;10.40;4.63;;;;;;;9.27;61.40;98619.22;4984494;28;20073;-68
2022/05/03 01:32:45;;;;;;;9.63;4.13;;;;;;;9.43;61.01;98625.28;4991817;28;20050;-67
2022/05/03 01:35:13;;;;;;;10.52;4.60;;;;;;;9.39;61.06;98621.53;5007987;28;20278;-68
2022/05/03 01:37:57;;;;;;;11.73;4.13;;;;;;;9.47;60.66;98611.84;5008319;28;20060;-68
2022/05/03 01:40:34;;;;;;;12.32;3.80;;;;;;;9.45;60.60;98606.69;5010952;28;20054;-68
2022/05/03 01:43:11;;;;;;;11.23;4.40;;;;;;;9.43;61.03;98611.63;5005648;28;20050;-70
2022/05/03 01:45:42;;;;;;;;;;;;;;;9.30;61.53;98609.63;4993189;28;20050;-69
2022/05/03 01:48:18;;;;;;;12.63;4.80;;;;;;;9.48;60.74;98616.19;5007666;28;19925;-69
2022/05/03 01:50:53;;;;;;;11.60;5.05;;;;;;;9.41;60.79;98604.84;5010840;28;20514;-70
2022/05/03 01:53:27;;;;;;;11.50;4.97;;;;;;;9.33;61.11;98615.31;4987078;28;20057;-68
2022/05/03 01:56:25;;;;;;;11.43;4.55;;;;;;;9.23;61.49;98601.81;5009819;28;20050;-69
2022/05/03 01:59:04;;;;;;;11.02;4.63;;;;;;;9.04;61.97;98610.00;5006283;28;20095;-70
2022/05/03 02:01:46;;;;;;;11.15;5.05;;;;;;;9.12;62.17;98625.72;5005414;28;20212;-70
2022/05/03 02:04:25;;;;;;;10.57;4.80;;;;;;;9.21;61.55;98620.41;4991107;28;20054;-69
2022/05/03 02:07:06;;;;;;;12.18;4.35;;;;;;;9.23;61.57;98620.91;4997963;28;20077;-68
2022/05/03 02:10:03;;;;;;;13.18;4.60;;;;;;;9.22;61.32;98603.75;5007495;28;20107;-69
2022/05/03 02:12:30;;;;;;;10.07;4.10;;;;;;;9.18;61.38;98610.88;4990829;28;20081;-69
2022/05/03 02:15:04;;;;;;;11.93;4.85;;;;;;;9.30;61.11;98607.72;4980024;28;20510;-68
2022/05/03 02:17:49;;;;;;;13.40;4.70;;;;;;;9.33;60.93;98609.88;4990780;28;20062;-68
2022/05/03 02:20:45;;;;;;;14.18;5.25;;;;;;;9.40;60.55;98609.50;5009280;28;20056;-67
2022/05/03 02:23:21;;;;;;;11.23;4.70;;;;;;;9.31;60.86;98600.34;4994455;28;20054;-68
2022/05/03 02:26:21;;;;;;;14.43;5.45;;;;;;;9.35;60.69;98606.81;4989490;28;20613;-68
2022/05/03 02:28:54;;;;;;;13.95;5.03;;;;;;;9.23;61.24;98599.09;4989629;28;20141;-69
2022/05/03 02:31:32;;;;;;;15.70;5.25;;;;;;;9.22;61.34;98595.56;5004809;28;20045;-73
2022/05/03 02:34:06;;;;;;;;;;;;;;;9.21;61.37;98604.88;4996730;28;20057;-73
2022/05/03 02:36:42;;;;;;;12.23;5.32;;;;;;;9.03;62.26;98594.75;4978313;28;19932;-73
2022/05/03 02:39:12;;;;;;;16.10;5.78;;;;;;;9.09;62.17;98596.31;4986258;28;20072;-73
2022/05/03 02:41:41;;;;;;;12.70;5.82;;;;;;;9.07;62.01;98598.53;5011320;28;20046;-70
2022/05/03 02:44:07;;;;;;;12.60;4.68;;;;;;;8.98;62.42;98590.19;5013628;28;20053;-70
2022/05/03 02:46:56;;;;;;;12.88;5.55;;;;;;;9.11;62.59;98596.00;4992942;28;20410;-71
2022/05/03 02:49:37;;;;;;;15.00;5.50;;;;;;;9.04;63.01;98594.47;5008249;28;20128;-71
2022/05/03 02:52:13;;;;;;;16.20;5.63;;;;;;;9.12;62.56;98584.81;5012585;28;20046;-70
2022/05/03 02:54:48;;;;;;;11.85;5.70;;;;;;;9.22;62.25;98581.94;4975248;28;20077;-71
2022/05/03 02:57:25;;;;;;;18.23;5.68;;;;;;;9.25;62.27;98583.25;5000939;28;20050;-73
2022/05/03 03:03:02;;;;;;;9.95;4.75;;;;;;;9.36;61.71;98572.97;5013511;28;20400;-74
2022/05/03 03:05:30;;;;;;;11.68;4.78;;;;;;;9.40;61.78;98571.31;4978860;28;20050;-74
2022/05/03 03:07:58;;;;;;;13.93;5.82;;;;;;;9.46;61.59;98569.31;4999526;28;20108;-74
2022/05/03 03:10:31;;;;;;;13.25;4.82;;;;;;;9.42;61.88;98566.34;5002174;28;20062;-74
2022/05/03 03:13:05;;;;;;;11.82;5.40;;;;;;;9.41;61.99;98561.19;5011827;28;20046;-73
2022/05/03 03:15:40;;;;;;;14.63;5.85;;;;;;;9.50;61.53;98565.66;4989035;28;20133;-73
2022/05/03 03:18:12;;;;;;;13.45;5.47;;;;;;;9.56;61.49;98563.66;4964069;28;20046;-73
2022/05/03 03:20:43;;;;;;;17.10;5.57;;;;;;;9.51;61.52;98570.00;4993733;28;20058;-74
2022/05/03 03:23:15;;;;;;;13.23;5.97;;;;;;;9.60;61.37;98561.97;4993209;28;20113;-74
2022/05/03 03:25:43;;;;;;;14.27;5.10;;;;;;;9.64;61.03;98556.72;4997522;28;20046;-74
2022/05/03 03:28:14;;;;;;;14.70;6.22;;;;;;;9.72;61.33;98555.22;5009182;28;20173;-74
2022/05/03 03:30:42;;;;;;;12.23;5.72;;;;;;;9.65;61.22;98547.41;4985020;28;20053;-74
2022/05/03 03:33:08;;;;;;;16.45;5.68;;;;;;;9.76;60.99;98548.06;5011713;28;20507;-74
2022/05/03 03:35:36;;;;;;;13.80;5.43;;;;;;;9.60;61.16;98531.13;4978818;28;20153;-73
2022/05/03 03:38:05;;;;;;;12.68;5.82;;;;;;;9.67;61.35;98538.94;4991760;28;20050;-74
2022/05/03 03:40:31;;;;;;;11.77;5.55;;;;;;;9.61;61.79;98541.75;4994730;28;20066;-74
2022/05/03 03:42:58;;;;;;;17.73;6.15;;;;;;;9.72;61.83;98552.50;4978983;28;20050;-74
2022/05/03 03:45:24;;;;;;;17.17;5.63;;;;;;;9.72;61.74;98547.84;5002812;28;20054;-73
2022/05/03 03:47:51;;;;;;;14.93;6.13;;;;;;;9.63;61.87;98541.44;5011762;28;20049;-74
2022/05/03 03:50:19;;;;;;;11.32;5.38;;;;;;;9.64;62.30;98553.97;4993057;28;20125;-73
2022/05/03 03:52:46;;;;;;;16.65;6.22;;;;;;;9.82;61.81;98551.50;4984691;28;20137;-72
2022/05/03 03:55:14;;;;;;;13.82;5.57;;;;;;;9.76;62.23;98548.88;5009627;28;20100;-73
2022/05/03 03:57:41;;;;;;;17.92;5.70;;;;;;;9.88;62.11;98533.94;5006277;28;20503;-72
2022/05/03 04:00:10;;;;;;;12.85;5.63;;;;;;;9.98;61.76;98550.09;5005965;28;20534;-73
2022/05/03 04:02:40;;;;;;;15.95;5.47;;;;;;;9.93;61.93;98544.75;5010508;28;20050;-72
2022/05/03 04:05:07;;;;;;;13.55;5.40;;;;;;;9.98;61.66;98536.44;5002187;28;20065;-73
2022/05/03 04:07:34;;;;;;;12.07;5.35;;;;;;;10.04;61.73;98532.53;4990962;28;20144;-74
2022/05/03 04:10:00;;;;;;;11.10;5.57;;;;;;;10.08;61.79;98538.22;4974087;28;20046;-74
2022/05/03 04:12:29;;;;;;;12.82;5.75;;;;;;;10.01;62.01;98529.59;5006333;28;20049;-74
2022/05/03 04:14:55;;;;;;;14.70;5.72;;;;;;;10.07;61.87;98537.38;5011388;28;20111;-73
2022/05/03 04:17:21;;;;;;;12.85;5.40;;;;;;;10.04;62.26;98545.38;4992960;28;20056;-72
2022/05/03 04:19:48;;;;;;;13.35;5.82;;;;;;;10.16;61.86;98542.94;5009595;28;20042;-72
2022/05/03 04:22:25;;;;;;;12.30;5.80;;;;;;;10.13;61.91;98534.53;4992970;28;20075;-71
2022/05/03 04:24:52;;;;;;;17.30;6.25;;;;;;;10.09;62.05;98523.44;5004311;28;20144;-71
2022/05/03 04:27:19;;;;;;;11.43;5.72;;;;;;;10.08;62.12;98528.06;4968626;28;20046;-72
2022/05/03 04:29:46;;;;;;;12.38;5.30;;;;;;;10.14;62.04;98525.25;5009250;28;20060;-72
2022/05/03 04:32:12;;;;;;;11.68;5.55;;;;;;;10.26;61.40;98508.38;4985157;28;20058;-72
2022/05/03 04:34:39;;;;;;;13.10;5.18;;;;;;;10.29;61.24;98511.28;4974334;28;20462;-71
2022/05/03 04:37:05;;;;;;;16.90;5.43;;;;;;;10.38;61.31;98530.53;5005405;28;20414;-73
2022/05/03 04:39:32;;;;;;;11.27;5.32;;;;;;;10.43;60.81;98510.50;4992499;28;20046;-71
2022/05/03 04:41:58;;;;;;;14.07;6.05;;;;;;;10.35;61.40;98533.84;5004683;28;20046;-71
2022/05/03 04:44:25;;;;;;;12.00;5.22;;;;;;;10.18;61.85;98521.59;4975482;28;20540;-73
2022/05/03 04:46:51;;;;;;;14.02;4.90;;;;;;;10.29;61.47;98522.19;5004142;28;20495;-69
2022/05/03 04:49:18;;;;;;;13.13;4.83;;;;;;;10.35;61.40;98531.94;5008327;28;20084;-72
2022/05/03 04:51:44;;;;;;;11.48;5.45;;;;;;;10.44;61.23;98521.13;5006922;28;20403;-73
2022/05/03 04:54:10;;;;;;;15.75;5.80;;;;;;;10.49;60.87;98518.28;5007850;28;20057;-73
2022/05/03 04:56:36;;;;;;;16.67;5.90;;;;;;;10.51;60.83;98507.06;4988084;28;20470;-73
2022/05/03 04:59:03;;;;;;;13.10;5.63;;;;;;;10.63;60.52;98510.06;4995274;28;20042;-71
2022/05/03 05:01:29;;;;;;;10.90;4.93;;;;;;;10.59;60.77;98514.50;4995943;28;20049;-71
2022/05/03 05:03:56;;;;;;;13.43;5.07;;;;;;;10.68;60.67;98500.13;4989453;28;20049;-70
2022/05/03 05:06:23;;;;;;;12.43;5.40;;;;;;;10.80;60.56;98502.31;5006495;28;20057;-74
2022/05/03 05:08:49;;;;;;;19.52;5.20;;;;;;;10.80;60.60;98502.31;4992413;28;20400;-73
2022/05/03 05:11:15;;;;;;;13.18;5.03;;;;;;;10.77;60.71;98512.75;5005276;28;20046;-73
2022/05/03 05:13:41;;;;;;;34.53;5.93;;;;;;;10.75;60.72;98511.44;4975113;28;20094;-73
2022/05/03 05:16:08;;;;;;;15.52;5.10;;;;;;;10.85;60.49;98522.16;5000502;28;20085;-69
2022/05/03 05:18:34;;;;;;;12.40;5.03;;;;;;;10.90;60.10;98505.63;4980967;28;20045;-68
2022/05/03 05:21:01;;;;;;;19.60;5.20;;;;;;;10.91;60.04;98515.44;5005379;28;20073;-69
2022/05/03 05:23:28;;;;;;;17.27;5.72;;;;;;;10.92;60.00;98511.59;4973671;28;20049;-69
2022/05/03 05:25:54;;;;;;;13.15;5.25;;;;;;;10.89;60.09;98497.75;4999877;28;20157;-68
2022/05/03 05:28:22;;;;;;;12.57;5.30;;;;;;;10.93;60.12;98501.47;5005455;28;20050;-68
2022/05/03 05:30:54;;;;;;;;;;;;;;;10.81;60.83;98507.50;4991912;28;20050;-69
2022/05/03 05:33:20;;;;;;;10.88;5.20;;;;;;;10.82;60.61;98511.03;5000900;28;19932;-69
2022/05/03 05:35:47;;;;;;;12.80;5.40;;;;;;;10.82;60.66;98505.56;5008335;28;20139;-69
2022/05/03 05:38:15;;;;;;;12.88;5.32;;;;;;;10.87;60.51;98494.53;4991915;28;20052;-69
2022/05/03 05:40:42;;;;;;;10.27;5.10;;;;;;;10.97;60.39;98485.28;5000912;28;20050;-70
2022/05/03 05:43:09;;;;;;;14.88;5.38;;;;;;;11.03;60.03;98492.22;4968011;28;20072;-69
2022/05/03 05:45:35;;;;;;;15.50;5.27;;;;;;;11.11;60.20;98469.63;5010830;28;20050;-69
2022/05/03 05:48:01;;;;;;;20.25;5.82;;;;;;;11.22;59.90;98470.16;5008858;28;20075;-69
2022/05/03 05:50:28;;;;;;;23.40;5.00;;;;;;;11.26;59.55;98476.63;4998384;28;20076;-68
2022/05/03 05:55:42;;;;;;;12.93;5.10;;;;;;;11.28;59.27;98460.69;4989947;28;20050;-68
2022/05/03 05:58:09;;;;;;;14.25;4.93;;;;;;;11.42;59.24;98468.03;4991410;28;20082;-69
2022/05/03 06:00:35;;;;;;;12.27;4.73;;;;;;;11.41;59.20;98453.56;5005485;28;20049;-69
2022/05/03 06:03:02;;;;;;;11.43;4.68;;;;;;;11.50;58.92;98461.81;5002257;28;20054;-69
2022/05/03 06:05:30;;;;;;;10.73;5.00;;;;;;;11.61;58.87;98451.41;5008977;28;20478;-67
2022/05/03 06:07:58;;;;;;;12.00;6.00;;;;;;;11.68;58.79;98449.00;4991783;28;20050;-68
2022/05/03 06:10:28;;;;;;;13.68;6.10;;;;;;;11.74;58.44;98427.78;4996478;28;20482;-69
2022/05/03 06:12:55;;;;;;;13.57;5.22;;;;;;;11.88;58.27;98469.53;4998568;28;20053;-68
2022/05/03 06:15:21;;;;;;;11.10;5.07;;;;;;;11.87;57.99;98462.47;4990628;28;20053;-69
2022/05/03 06:17:48;;;;;;;12.13;5.40;;;;;;;11.84;57.85;98443.94;4991372;28;20042;-69
2022/05/03 06:20:13;;;;;;;14.10;5.80;;;;;;;11.95;57.89;98447.19;5001605;28;20058;-69
2022/05/03 06:22:40;;;;;;;10.02;4.50;;;;;;;11.98;57.50;98432.84;5006055;28;20515;-69
2022/05/03 06:25:08;;;;;;;16.23;5.72;;;;;;;12.05;57.14;98425.03;5008187;28;20148;-69
2022/05/03 06:27:35;;;;;;;11.55;5.20;;;;;;;11.94;57.15;98418.19;4994833;28;20072;-69
2022/05/03 06:30:02;;;;;;;13.70;4.80;;;;;;;12.05;57.14;98441.47;5002531;28;20133;-69
2022/05/03 06:32:29;;;;;;;10.82;5.28;;;;;;;11.96;57.09;98431.56;5002244;28;20058;-68
2022/05/03 06:34:56;;;;;;;10.80;4.90;;;;;;;12.04;57.04;98426.16;4982506;28;20050;-69
2022/05/03 06:37:22;;;;;;;13.88;5.55;;;;;;;12.17;56.93;98426.31;4987817;28;20502;-69
2022/05/03 06:39:48;;;;;;;13.52;5.60;;;;;;;12.27;56.68;98414.28;5006295;28;20046;-69
2022/05/03 06:42:16;;;;;;;12.93;4.70;;;;;;;12.44;56.61;98407.97;5002915;28;20058;-68
2022/05/03 06:44:42;;;;;;;12.55;4.80;;;;;;;12.57;56.22;98396.06;5007666;28;20541;-70
2022/05/03 06:47:09;;;;;;;16.55;5.00;;;;;;;12.70;56.02;98404.44;5004887;28;20152;-69
2022/05/03 06:49:35;;;;;;;23.90;5.55;;;;;;;12.81;55.75;98385.72;5004790;28;20053;-70
2022/05/03 06:52:03;;;;;;;13.60;5.20;;;;;;;12.89;55.61;98393.94;4992548;28;20495;-69
2022/05/03 06:54:29;;;;;;;11.07;5.22;;;;;;;12.98;55.17;98415.09;5007454;28;20046;-70
2022/05/03 06:56:55;;;;;;;19.35;4.70;;;;;;;13.03;54.20;98387.47;4989293;28;20081;-69
2022/05/03 06:59:21;;;;;;;10.30;4.63;;;;;;;13.12;54.19;98412.97;5001362;28;20066;-70
2022/05/03 07:01:47;;;;;;;14.68;4.88;;;;;;;13.19;54.08;98391.31;5003811;28;20050;-68
2022/05/03 07:04:14;;;;;;;9.63;4.43;;;;;;;13.25;53.16;98391.94;4993750;28;20422;-69
2022/05/03 07:06:40;;;;;;;18.55;4.63;;;;;;;13.21;52.58;98421.19;5002413;28;20099;-69
2022/05/03 07:09:07;;;;;;;14.65;4.70;;;;;;;13.17;52.42;98399.06;5011677;28;20061;-69
2022/05/03 07:11:33;;;;;;;10.48;4.10;;;;;;;13.15;52.16;98415.06;5000253;28;20046;-69
2022/05/03 07:13:59;;;;;;;14.95;4.25;;;;;;;13.07;51.47;98420.56;5005969;28;20384;-69
2022/05/03 07:16:25;;;;;;;20.88;4.90;;;;;;;13.13;51.15;98376.16;5005692;28;20054;-69
2022/05/03 07:24:21;;;;;;;12.20;4.55;;;;;;;13.19;50.73;98377.59;5010605;28;20450;-70
2022/05/03 07:26:48;;;;;;;10.05;4.50;;;;;;;13.23;50.90;98391.47;5005886;28;20041;-68
2022/05/03 07:29:14;;;;;;;18.40;4.97;;;;;;;13.31;50.95;98368.66;4977975;28;20041;-69
2022/05/03 07:31:55;;;;;;;12.65;4.93;;;;;;;13.30;50.80;98382.75;5007983;28;20313;-70
2022/05/03 07:34:21;;;;;;;14.45;4.65;;;;;;;13.40;50.56;98356.88;5002905;28;20084;-69
2022/05/03 07:36:48;;;;;;;14.30;4.47;;;;;;;13.63;50.43;98354.69;5011665;28;20050;-70
2022/05/03 07:39:14;;;;;;;12.32;4.78;;;;;;;13.79;50.12;98349.44;5010430;28;20080;-69
2022/05/03 07:41:41;;;;;;;13.60;5.05;;;;;;;13.86;49.91;98362.66;4999598;28;20050;-69
2022/05/03 07:44:07;;;;;;;12.98;4.38;;;;;;;13.88;49.68;98352.94;4992381;28;20058;-70
2022/05/03 07:46:33;;;;;;;14.63;4.37;;;;;;;13.93;49.84;98351.13;4994836;28;20057;-69
2022/05/03 07:49:00;;;;;;;12.98;4.40;;;;;;;13.95;49.70;98349.69;5012783;28;20049;-70
2022/05/03 07:51:26;;;;;;;10.80;4.50;;;;;;;13.93;48.76;98351.94;5009811;28;20053;-70
2022/05/03 07:53:54;;;;;;;12.98;4.15;;;;;;;13.97;48.77;98339.16;4990364;28;20104;-69
2022/05/03 07:56:20;;;;;;;10.15;4.47;;;;;;;13.99;48.70;98339.63;4993783;28;20100;-69
2022/05/03 07:58:46;;;;;;;17.00;4.70;;;;;;;14.05;48.03;98342.97;5003239;28;20065;-69
2022/05/03 08:01:12;;;;;;;19.88;4.50;;;;;;;13.98;47.45;98332.53;4990204;28;20054;-69
2022/05/03 08:03:38;;;;;;;11.93;4.03;;;;;;;13.90;46.47;98347.13;5007068;28;20049;-67
2022/05/03 08:06:05;;;;;;;11.65;4.20;;;;;;;13.93;45.79;98368.44;5000139;28;20077;-68
2022/05/03 08:08:36;;;;;;;11.43;3.95;;;;;;;13.95;46.07;98337.88;4992442;28;20570;-69
2022/05/03 08:11:05;;;;;;;18.00;5.28;;;;;;;14.02;46.09;98318.91;4999053;28;20113;-69
2022/05/03 08:13:33;;;;;;;11.52;4.07;;;;;;;14.00;45.92;98332.97;5009343;28;20466;-66
2022/05/03 08:15:58;;;;;;;12.85;4.38;;;;;;;14.06;45.65;98319.06;5008794;28;20065;-68
2022/05/03 08:18:25;;;;;;;15.23;4.07;;;;;;;13.99;44.86;98320.38;5012303;28;20123;-67
2022/05/03 08:20:54;;;;;;;11.63;3.95;;;;;;;13.96;43.42;98343.03;5006851;28;20045;-67
2022/05/03 08:23:20;;;;;;;15.20;4.03;;;;;;;14.03;43.35;98304.84;5011479;28;20491;-68
2022/05/03 08:25:47;;;;;;;23.45;4.13;;;;;;;14.06;41.90;98300.63;5010987;28;20172;-68
2022/05/03 08:28:14;;;;;;;9.63;3.63;;;;;;;14.09;42.28;98312.91;4995004;28;20065;-67
2022/05/03 08:30:41;;;;;;;16.48;4.07;;;;;;;14.11;41.86;98305.13;5003532;28;20056;-68
2022/05/03 08:33:08;;;;;;;17.92;4.35;;;;;;;14.25;41.80;98310.34;5012422;28;20399;-68
2022/05/03 08:35:34;;;;;;;14.70;3.72;;;;;;;14.28;41.08;98320.66;5008954;28;20049;-68
2022/05/03 08:43:35;;;;;;;15.70;4.20;;;;;;;14.53;39.94;98302.34;4992174;28;20301;-68
2022/05/03 08:46:06;;;;;;;13.27;4.40;;;;;;;14.43;39.94;98294.50;4995199;28;20070;-67
2022/05/03 08:48:35;;;;;;;14.65;4.22;;;;;;;14.39;40.85;98299.88;5007174;28;20053;-68
2022/05/03 08:51:01;;;;;;;13.85;3.97;;;;;;;14.38;41.14;98306.50;5010530;28;20156;-68
2022/05/03 08:53:28;;;;;;;12.38;4.40;;;;;;;14.32;41.50;98319.66;5010509;28;20050;-68
2022/05/03 08:55:55;;;;;;;13.13;4.13;;;;;;;14.38;41.20;98309.25;4997536;28;20105;-69
2022/05/03 08:58:22;;;;;;;13.20;4.13;;;;;;;14.66;40.76;98292.19;5004831;28;20053;-67
2022/05/03 09:00:49;;;;;;;17.48;3.85;;;;;;;14.82;40.39;98278.59;5004251;28;20050;-67
2022/05/03 09:03:15;;;;;;;17.23;5.17;;;;;;;14.87;40.07;98275.66;4991633;28;20058;-67
2022/05/03 09:05:45;;;;;;;12.60;4.72;;;;;;;14.83;39.80;98295.94;4980772;28;20315;-69
2022/05/03 09:08:12;;;;;;;16.20;4.33;;;;;;;14.93;39.59;98294.69;4991330;28;20050;-67
2022/05/03 09:10:38;;;;;;;13.15;4.15;;;;;;;14.97;39.72;98268.09;4991465;28;20300;-68
2022/05/03 09:13:20;;;;;;;10.35;3.80;;;;;;;15.15;38.89;98274.19;5011383;28;20064;-67
2022/05/03 09:15:55;;;;;;;8.57;3.63;;;;;;;15.29;38.31;98255.41;5001183;28;20057;-68
2022/05/03 09:18:24;;;;;;;17.08;4.72;;;;;;;15.49;38.28;98260.34;5009412;28;20095;-67
2022/05/03 09:23:51;;;;;;;18.80;4.45;;;;;;;15.60;37.06;98261.44;4991970;28;20121;-67
2022/05/03 09:26:20;;;;;;;14.52;3.85;;;;;;;15.69;36.67;98237.34;5005377;28;20414;-67
2022/05/03 09:28:48;;;;;;;14.00;4.22;;;;;;;15.60;35.75;98280.72;5005984;28;20054;-69
2022/05/03 09:31:27;;;;;;;12.00;3.72;;;;;;;15.80;35.46;98237.66;5004347;28;20081;-69
2022/05/03 09:33:54;;;;;;;14.60;4.47;;;;;;;16.01;35.32;98280.84;5005526;28;20042;-69
2022/05/03 09:36:21;;;;;;;10.27;3.00;;;;;;;15.97;34.92;98224.78;5006851;28;20049;-69
2022/05/03 09:38:48;;;;;;;10.52;3.78;;;;;;;15.82;34.87;98259.38;4992176;28;20537;-69
2022/05/03 09:41:15;;;;;;;;;;;;;;;15.84;35.18;98257.06;4992708;28;20065;-69
2022/05/03 09:44:02;;;;;;;9.73;3.80;;;;;;;15.61;35.08;98276.84;5004156;28;19925;-69
2022/05/03 09:46:28;;;;;;;17.90;4.30;;;;;;;15.44;35.34;98262.16;5007271;28;20058;-69
2022/05/03 09:48:55;;;;;;;18.63;3.95;;;;;;;15.39;36.21;98204.56;5008845;28;20045;-69
2022/05/03 09:51:22;;;;;;;14.05;3.53;;;;;;;15.57;35.34;98267.66;5007575;28;20645;-69
2022/05/03 09:53:55;;;;;;;12.33;4.20;;;;;;;15.78;34.50;98222.66;4987686;28;20046;-69
2022/05/03 09:56:25;;;;;;;12.45;3.75;;;;;;;15.94;34.85;98275.91;4976881;28;20325;-69
2022/05/03 09:59:00;;;;;;;12.07;4.10;;;;;;;15.93;34.92;98213.69;5000461;28;20422;-69
2022/05/03 10:01:27;;;;;;;10.27;3.47;;;;;;;15.83;35.19;98203.88;4998065;28;20053;-70
2022/05/03 10:03:57;;;;;;;12.52;3.70;;;;;;;15.76;34.98;98246.97;5004269;28;20050;-69
2022/05/03 10:06:23;;;;;;;11.18;4.15;;;;;;;15.63;34.96;98230.47;5009457;28;20438;-70
2022/05/03 10:08:51;;;;;;;10.32;3.53;;;;;;;15.58;34.99;98230.69;5008988;28;20413;-67
2022/05/03 10:11:26;;;;;;;10.05;3.90;;;;;;;15.81;35.43;98197.94;5003148;28;20056;-68
2022/05/03 10:20:43;;;;;;;14.13;3.15;;;;;;;16.18;35.23;98179.69;4982442;28;20051;-69
2022/05/03 10:23:20;;;;;;;19.60;4.35;;;;;;;16.35;34.86;98206.94;4986021;28;20061;-69
2022/05/03 10:25:50;;;;;;;13.57;3.40;;;;;;;16.54;34.29;98178.66;4947046;28;20438;-69
2022/05/03 10:28:17;;;;;;;22.25;3.70;;;;;;;16.75;34.02;98177.63;4977245;28;20054;-69
2022/05/03 10:31:08;;;;;;;10.35;3.08;;;;;;;16.80;33.20;98182.88;4967998;28;20145;-68
2022/05/03 10:33:39;;;;;;;8.35;2.83;;;;;;;16.81;32.74;98167.13;4969859;28;20058;-68
2022/05/03 10:36:39;;;;;;;13.77;3.47;;;;;;;16.79;32.50;98159.19;4988799;28;20054;-70
2022/05/03 10:39:17;;;;;;;14.13;3.58;;;;;;;16.75;32.97;98180.41;4957482;28;20051;-69
2022/05/03 10:41:54;;;;;;;12.63;3.20;;;;;;;16.46;32.80;98190.69;4983707;28;20526;-69
2022/05/03 10:44:42;;;;;;;13.13;3.33;;;;;;;16.50;33.31;98204.59;4989870;28;20648;-68
2022/05/03 10:47:09;;;;;;;12.70;3.40;;;;;;;16.42;33.23;98171.28;4975128;28;20055;-66
2022/05/03 10:49:36;;;;;;;9.80;3.60;;;;;;;16.54;33.18;98184.19;5005440;28;20058;-67
2022/05/03 10:52:17;;;;;;;10.32;3.35;;;;;;;16.72;33.15;98159.03;4998607;28;20061;-67
2022/05/03 10:55:06;;;;;;;28.88;4.70;;;;;;;16.98;32.91;98165.94;4987543;28;20507;-68
2022/05/03 10:57:32;;;;;;;24.42;3.60;;;;;;;17.14;32.23;98165.97;4997351;28;20057;-67
2022/05/03 10:59:58;;;;;;;15.18;3.92;;;;;;;17.29;31.67;98142.22;5006672;28;20041;-69
2022/05/03 11:02:25;;;;;;;18.13;4.18;;;;;;;17.25;31.88;98164.28;5008908;28;20687;-70
2022/05/03 11:05:16;;;;;;;10.10;3.50;;;;;;;17.29;32.05;98153.28;4993089;28;20065;-70
2022/05/03 11:08:16;;;;;;;14.93;4.28;;;;;;;17.32;32.22;98133.22;4976279;28;20461;-69
2022/05/03 11:10:45;;;;;;;12.30;3.55;;;;;;;17.11;31.40;98178.53;5004794;28;20049;-68
2022/05/03 11:13:39;;;;;;;8.45;2.95;;;;;;;17.08;30.89;98193.06;5005650;28;20585;-67
2022/05/03 11:16:23;;;;;;;8.52;3.08;;;;;;;17.06;31.27;98140.16;4949807;28;20058;-67
2022/05/03 11:18:50;;;;;;;13.40;3.50;;;;;;;17.44;31.07;98127.56;5007176;28;20423;-67
2022/05/03 11:21:17;;;;;;;11.27;3.13;;;;;;;17.74;30.52;98140.06;5000893;28;20049;-68
2022/05/03 11:23:50;;;;;;;13.63;3.40;;;;;;;17.93;30.58;98130.16;5010852;28;20216;-66
2022/05/03 11:26:18;;;;;;;16.33;3.22;;;;;;;17.76;29.88;98126.66;4989049;28;20089;-68
2022/05/03 11:28:46;;;;;;;19.33;3.22;;;;;;;17.59;29.38;98150.00;4990584;28;20046;-69
2022/05/03 11:31:15;;;;;;;13.20;3.75;;;;;;;17.82;29.58;98132.69;5002611;28;20042;-68
2022/05/03 11:33:49;;;;;;;19.20;2.92;;;;;;;18.14;29.42;98124.25;4998620;28;20034;-67
2022/05/03 11:36:15;;;;;;;15.75;2.80;;;;;;;18.50;28.93;98115.81;5010673;28;20433;-67
2022/05/03 11:38:42;;;;;;;10.93;3.60;;;;;;;18.59;28.89;98124.63;4989364;28;20082;-69
2022/05/03 11:41:09;;;;;;;16.40;3.05;;;;;;;18.58;28.48;98120.28;4983049;28;20084;-67
2022/05/03 11:43:36;;;;;;;21.27;4.00;;;;;;;18.97;28.32;98131.19;4998724;28;20133;-67
2022/05/03 11:46:03;;;;;;;8.07;3.08;;;;;;;18.96;27.04;98135.09;4999696;28;20050;-68
2022/05/03 11:48:30;;;;;;;8.80;2.97;;;;;;;18.67;27.27;98114.50;5010212;28;20140;-67
2022/05/03 11:56:27;;;;;;;14.95;3.55;;;;;;;19.06;28.28;98103.28;5003446;28;20053;-71
2022/05/03 11:58:54;;;;;;;14.15;3.45;;;;;;;18.78;27.92;98090.56;4983569;28;20044;-70
2022/05/03 12:01:23;;;;;;;17.98;3.67;;;;;;;18.63;27.95;98094.25;5004005;28;20525;-71
2022/05/03 12:03:51;;;;;;;14.35;3.30;;;;;;;18.95;27.60;98094.75;4998956;28;20145;-71
2022/05/03 12:06:18;;;;;;;13.00;3.22;;;;;;;18.81;28.00;98089.81;5004828;28;20054;-71
2022/05/03 12:08:46;;;;;;;10.75;3.22;;;;;;;18.53;27.59;98071.56;5004077;28;20541;-70
2022/05/03 12:11:24;;;;;;;11.10;3.15;;;;;;;18.86;27.80;98074.84;5008009;28;20064;-69
2022/05/03 12:13:50;;;;;;;27.10;4.07;;;;;;;19.35;27.21;98084.25;5010637;28;20426;-71
2022/05/03 12:16:22;;;;;;;15.30;3.33;;;;;;;19.75;26.97;98064.53;5006633;28;20044;-72